Time;durP1;ratioP1;P1;durP2;ratioP2;P2;SDS_P1;SDS_P2;PMS_P1;PMS_P2;Temp;Humidity;BMP_temperature;BMP_pressure;BME280_temperature;BME280_humidity;BME280_pressure;Samples;Min_cycle;Max_cycle;Signal;HPM_P1;HPM_P2
2021/11/24 00:00:38;;;;;;;;;6.75;6.50;;;;;20.50;35.46;102230.66;5011294;27;51185;-49
2021/11/24 00:03:04;;;;;;;;;5.75;5.75;;;;;20.46;35.22;102225.53;4997564;28;51263;-49
2021/11/24 00:05:29;;;;;;;;;8.50;6.00;;;;;20.45;35.60;102222.97;4999045;28;50961;-49
2021/11/24 00:07:55;;;;;;;;;8.00;5.75;;;;;20.43;35.32;102225.91;4998730;28;51987;-51
2021/11/24 00:10:20;;;;;;;;;8.00;6.75;;;;;20.40;35.21;102212.47;5005371;28;51567;-47
2021/11/24 00:12:47;;;;;;;;;8.50;6.00;;;;;20.40;35.44;102206.97;5006534;28;51552;-51
2021/11/24 00:15:13;;;;;;;;;6.00;5.25;;;;;20.38;35.60;102200.81;5010448;28;51189;-52
2021/11/24 00:17:39;;;;;;;;;6.25;5.50;;;;;20.37;35.43;102209.25;5006985;28;52584;-49
2021/11/24 00:20:07;;;;;;;;;9.00;7.00;;;;;20.36;35.49;102213.06;5005813;28;51116;-50
2021/11/24 00:22:32;;;;;;;;;4.50;4.50;;;;;20.34;35.29;102204.13;4988963;28;51108;-48
2021/11/24 00:24:58;;;;;;;;;5.75;5.75;;;;;20.32;35.45;102203.44;5009830;27;51190;-51
2021/11/24 00:27:23;;;;;;;;;6.25;5.00;;;;;20.30;35.41;102198.13;5009904;28;52099;-48
2021/11/24 00:29:49;;;;;;;;;9.75;6.75;;;;;20.30;35.38;102208.28;4999139;28;51106;-50
2021/11/24 00:32:18;;;;;;;;;6.00;6.00;;;;;20.27;35.73;102201.28;5002308;28;51104;-50
2021/11/24 00:34:44;;;;;;;;;6.00;6.00;;;;;20.27;35.49;102205.94;5004998;28;51061;-50
2021/11/24 00:37:09;;;;;;;;;4.50;4.50;;;;;20.25;35.59;102208.00;5002828;27;51139;-50
2021/11/24 00:39:35;;;;;;;;;6.25;6.00;;;;;20.24;35.82;102203.56;5005579;28;51815;-50
2021/11/24 00:42:00;;;;;;;;;12.00;8.25;;;;;20.22;35.84;102201.00;4997917;28;51288;-51
2021/11/24 00:44:25;;;;;;;;;8.50;6.75;;;;;20.21;35.51;102201.16;5005163;28;51209;-50
2021/11/24 00:46:51;;;;;;;;;7.25;6.75;;;;;20.20;35.53;102200.31;5008033;28;51733;-47
2021/11/24 00:49:16;;;;;;;;;6.75;6.75;;;;;20.18;35.75;102196.91;5003288;28;51206;-47
2021/11/24 00:51:42;;;;;;;;;6.00;6.00;;;;;20.16;35.61;102197.09;5002033;28;51158;-47
2021/11/24 00:54:07;;;;;;;;;8.00;5.00;;;;;20.15;36.03;102197.28;5002872;27;51008;-50
2021/11/24 00:56:33;;;;;;;;;4.50;4.50;;;;;20.14;35.58;102193.69;5001599;28;51091;-50
2021/11/24 00:58:58;;;;;;;;;5.25;5.25;;;;;20.13;35.87;102193.88;5007129;27;51145;-47
2021/11/24 01:01:24;;;;;;;;;6.00;6.00;;;;;20.13;35.82;102191.13;5004833;27;51113;-51
2021/11/24 01:03:49;;;;;;;;;7.00;5.25;;;;;20.10;35.91;102178.56;4998454;28;51023;-51
2021/11/24 01:06:15;;;;;;;;;6.00;6.00;;;;;20.10;35.71;102174.97;5006007;28;51725;-47
2021/11/24 01:08:40;;;;;;;;;5.25;5.00;;;;;20.09;35.92;102173.25;5001344;27;51226;-51
2021/11/24 01:11:06;;;;;;;;;6.25;6.00;;;;;20.07;35.70;102170.69;5005663;28;51289;-51
2021/11/24 01:13:31;;;;;;;;;7.25;7.25;;;;;20.06;35.83;102169.00;5007193;27;51323;-49
2021/11/24 01:15:57;;;;;;;;;7.25;6.50;;;;;20.06;35.75;102174.50;5001425;28;51698;-51
2021/11/24 01:18:23;;;;;;;;;7.75;7.50;;;;;20.05;35.80;102169.19;5003345;28;51177;-51
2021/11/24 01:20:48;;;;;;;;;8.25;6.75;;;;;20.04;35.70;102167.47;5010416;28;51147;-50
2021/11/24 01:23:15;;;;;;;;;7.50;6.25;;;;;20.01;35.72;102165.97;4999381;28;51236;-49
2021/11/24 01:25:40;;;;;;;;;5.00;5.00;;;;;20.01;35.58;102162.34;4987129;27;51956;-51
2021/11/24 01:28:07;;;;;;;;;5.00;4.00;;;;;20.01;35.81;102170.59;5009257;28;51211;-47
2021/11/24 01:30:33;;;;;;;;;5.25;5.25;;;;;19.99;36.20;102165.28;5005209;28;51343;-49
2021/11/24 01:32:58;;;;;;;;;6.00;5.00;;;;;19.98;35.74;102149.81;4998401;28;51652;-46
2021/11/24 01:35:23;;;;;;;;;5.75;4.50;;;;;19.97;35.89;102164.63;5001453;28;51960;-51
2021/11/24 01:37:49;;;;;;;;;6.75;6.00;;;;;19.96;36.15;102151.06;5004155;28;51245;-51
2021/11/24 01:40:15;;;;;;;;;7.00;7.00;;;;;19.95;36.08;102152.97;5004180;27;51120;-49
2021/11/24 01:42:41;;;;;;;;;6.75;6.25;;;;;19.95;35.84;102152.09;5001461;28;51291;-49
2021/11/24 01:45:08;;;;;;;;;6.75;6.25;;;;;19.94;36.27;102158.66;5004435;28;51135;-47
2021/11/24 01:47:34;;;;;;;;;6.00;5.75;;;;;19.92;35.93;102145.09;4997565;28;51208;-47
2021/11/24 01:49:59;;;;;;;;;6.00;4.50;;;;;19.91;36.33;102151.63;4995719;27;51215;-52
2021/11/24 01:52:24;;;;;;;;;7.25;6.50;;;;;19.92;36.07;102146.97;5011099;28;51223;-52
2021/11/24 01:54:50;;;;;;;;;3.75;3.00;;;;;19.89;36.17;102153.69;5011756;27;52011;-50
2021/11/24 01:57:17;;;;;;;;;8.00;6.00;;;;;19.89;35.95;102139.94;5011019;27;51159;-50
2021/11/24 01:59:43;;;;;;;;;6.00;5.00;;;;;19.88;36.01;102150.09;5004278;28;51230;-49
2021/11/24 02:02:10;;;;;;;;;6.00;6.00;;;;;19.87;36.18;102136.53;5032479;27;51191;-52
2021/11/24 02:04:35;;;;;;;;;5.50;5.50;;;;;19.87;35.95;102133.78;5000561;27;52703;-50
2021/11/24 02:07:01;;;;;;;;;6.00;5.50;;;;;19.85;36.38;102131.22;5004027;28;51138;-49
2021/11/24 02:09:26;;;;;;;;;6.75;4.50;;;;;19.85;36.29;102130.38;5008028;28;51339;-48
2021/11/24 02:11:52;;;;;;;;;7.00;5.25;;;;;19.84;36.45;102121.28;5004636;27;51086;-46
2021/11/24 02:14:18;;;;;;;;;7.25;5.25;;;;;19.84;36.13;102123.16;4995179;28;52873;-49
2021/11/24 02:16:51;;;;;;;;;5.00;5.00;;;;;19.83;36.60;102127.81;5005346;27;51164;-48
2021/11/24 02:19:17;;;;;;;;;5.75;5.75;;;;;19.82;36.20;102125.25;5006144;28;51160;-49
2021/11/24 02:21:53;;;;;;;;;4.75;4.75;;;;;19.81;36.31;102127.16;5002144;28;51256;-51
2021/11/24 02:24:21;;;;;;;;;6.00;5.50;;;;;19.81;36.55;102123.56;5008205;28;51664;-50
2021/11/24 02:26:46;;;;;;;;;5.75;5.25;;;;;19.80;36.45;102121.81;5018892;28;51031;-46
2021/11/24 02:29:12;;;;;;;;;5.75;5.75;;;;;19.79;36.31;102129.22;5004126;28;51158;-50
2021/11/24 02:31:38;;;;;;;;;6.75;5.50;;;;;19.78;36.24;102111.00;5012137;28;51436;-50
2021/11/24 02:34:03;;;;;;;;;7.75;6.50;;;;;19.77;36.09;102112.03;5002219;28;51869;-52
2021/11/24 02:36:31;;;;;;;;;6.25;4.50;;;;;19.75;36.48;102116.88;5001133;28;51100;-49
2021/11/24 02:38:56;;;;;;;;;4.00;4.00;;;;;19.75;36.38;102105.88;4995863;28;51108;-48
2021/11/24 02:41:22;;;;;;;;;6.75;5.25;;;;;19.74;36.79;102109.69;5009818;28;51013;-47
2021/11/24 02:43:47;;;;;;;;;10.75;8.00;;;;;19.74;36.24;102108.84;5007697;28;51886;-51
2021/11/24 02:46:13;;;;;;;;;6.00;6.00;;;;;19.73;36.44;102107.97;5006621;28;51114;-49
2021/11/24 02:48:39;;;;;;;;;8.00;6.00;;;;;19.73;36.24;102098.88;5004226;27;51265;-49
2021/11/24 02:51:05;;;;;;;;;6.50;5.00;;;;;19.71;36.16;102099.06;5003764;28;51149;-51
2021/11/24 02:53:32;;;;;;;;;5.00;4.75;;;;;19.70;36.46;102091.88;5011519;28;51660;-50
2021/11/24 02:55:59;;;;;;;;;5.75;5.50;;;;;19.70;36.21;102088.25;5003234;28;51497;-48
2021/11/24 02:58:25;;;;;;;;;6.25;5.25;;;;;19.69;36.68;102089.28;5003482;28;51012;-45
2021/11/24 03:00:52;;;;;;;;;5.50;5.00;;;;;19.69;36.27;102078.28;5011068;28;51087;-48
2021/11/24 03:03:17;;;;;;;;;4.50;4.50;;;;;19.68;36.35;102079.31;5028666;27;52923;-46
2021/11/24 03:05:43;;;;;;;;;6.00;6.00;;;;;19.67;36.60;102075.72;5000395;28;51223;-45
2021/11/24 03:08:08;;;;;;;;;5.00;5.00;;;;;19.65;36.55;102072.31;4999309;28;51412;-46
2021/11/24 03:10:34;;;;;;;;;6.75;5.75;;;;;19.65;36.57;102071.47;5004463;27;51084;-50
2021/11/24 03:13:01;;;;;;;;;6.25;5.25;;;;;19.64;36.64;102069.75;5003484;27;51854;-50
2021/11/24 03:15:26;;;;;;;;;3.25;3.00;;;;;19.63;36.42;102057.91;5011168;28;51106;-49
2021/11/24 03:17:52;;;;;;;;;6.50;6.50;;;;;19.62;36.64;102061.69;5003038;28;51310;-49
2021/11/24 03:20:17;;;;;;;;;3.75;3.75;;;;;19.62;36.42;102053.44;5003333;28;51131;-52
2021/11/24 03:22:43;;;;;;;;;6.50;6.00;;;;;19.62;36.54;102047.09;5000670;27;51915;-50
2021/11/24 03:25:11;;;;;;;;;5.00;5.00;;;;;19.60;36.63;102045.41;5001651;28;51120;-47
2021/11/24 03:27:39;;;;;;;;;4.50;4.50;;;;;19.58;36.63;102039.22;5011747;28;52586;-51
2021/11/24 03:30:08;;;;;;;;;8.00;6.75;;;;;19.58;36.56;102046.59;5006660;27;52470;-50
2021/11/24 03:32:34;;;;;;;;;7.75;7.25;;;;;19.58;36.43;102044.72;5006279;27;52031;-49
2021/11/24 03:34:59;;;;;;;;;8.50;6.00;;;;;19.58;36.61;102046.59;5008293;28;51035;-51
2021/11/24 03:37:24;;;;;;;;;6.00;4.25;;;;;19.57;36.37;102047.66;5003269;28;50996;-50
2021/11/24 03:39:50;;;;;;;;;6.50;5.50;;;;;19.55;36.60;102035.97;5004212;27;51286;-51
2021/11/24 03:42:16;;;;;;;;;5.00;5.00;;;;;19.55;36.58;102039.59;5003529;28;51073;-48
2021/11/24 03:44:42;;;;;;;;;6.25;4.75;;;;;19.54;36.75;102037.84;5002965;28;51053;-50
2021/11/24 03:47:08;;;;;;;;;6.00;6.00;;;;;19.53;36.47;102038.91;5007587;28;51100;-50
2021/11/24 03:49:33;;;;;;;;;8.00;6.00;;;;;19.53;36.43;102029.81;5004049;28;51009;-51
2021/11/24 03:51:58;;;;;;;;;6.00;6.00;;;;;19.53;36.48;102040.81;5010721;27;51714;-51
2021/11/24 03:54:24;;;;;;;;;6.75;6.00;;;;;19.51;36.77;102030.00;5005036;28;51167;-50
2021/11/24 03:56:49;;;;;;;;;6.50;5.75;;;;;19.50;36.39;102020.06;5000008;28;51143;-49
2021/11/24 03:59:15;;;;;;;;;5.00;5.00;;;;;19.50;36.41;102019.19;4999575;28;51340;-49
2021/11/24 04:01:40;;;;;;;;;5.75;5.75;;;;;19.50;36.73;102011.81;5009686;28;51141;-50
2021/11/24 04:04:05;;;;;;;;;4.50;4.50;;;;;19.48;36.75;102022.09;5023754;27;51138;-48
2021/11/24 04:06:32;;;;;;;;;8.25;7.00;;;;;19.48;36.74;102015.75;5000082;28;51401;-51
2021/11/24 04:08:58;;;;;;;;;7.00;7.00;;;;;19.47;36.62;102009.41;5002289;28;51338;-52
2021/11/24 04:11:24;;;;;;;;;5.25;5.25;;;;;19.46;36.78;102012.34;4996388;27;53854;-52
2021/11/24 04:13:49;;;;;;;;;5.25;5.25;;;;;19.47;36.64;102019.56;5002540;27;51009;-51
2021/11/24 04:16:15;;;;;;;;;6.25;6.00;;;;;19.45;36.65;102018.88;5004737;28;51105;-51
2021/11/24 04:18:40;;;;;;;;;5.50;4.75;;;;;19.44;36.79;102007.03;5006100;27;51052;-51
2021/11/24 04:21:05;;;;;;;;;6.00;6.00;;;;;19.44;36.88;102001.56;5005264;28;52330;-50
2021/11/24 04:23:31;;;;;;;;;5.00;5.00;;;;;19.44;36.68;102003.44;5004783;27;51173;-49
2021/11/24 04:25:56;;;;;;;;;5.00;4.50;;;;;19.43;36.78;101999.84;5009081;28;51158;-50
2021/11/24 04:28:21;;;;;;;;;5.75;5.75;;;;;19.43;36.77;102001.75;5010292;28;51249;-51
2021/11/24 04:30:47;;;;;;;;;7.50;6.50;;;;;19.42;36.59;101994.53;5007921;28;51765;-48
2021/11/24 04:33:13;;;;;;;;;7.00;7.00;;;;;19.41;36.62;101987.34;5003131;28;51069;-50
2021/11/24 04:35:39;;;;;;;;;5.75;5.00;;;;;19.39;37.01;101979.28;5003224;28;51130;-51
2021/11/24 04:38:05;;;;;;;;;5.00;5.00;;;;;19.39;36.87;101979.28;5004033;28;51510;-52
2021/11/24 04:40:30;;;;;;;;;5.00;4.25;;;;;19.39;36.93;101972.94;5007639;27;51147;-50
2021/11/24 04:42:56;;;;;;;;;6.75;4.50;;;;;19.38;36.95;101971.22;5006667;28;51089;-51
2021/11/24 04:45:22;;;;;;;;;6.50;5.75;;;;;19.37;36.73;101975.84;5009639;28;51254;-51
2021/11/24 04:47:47;;;;;;;;;7.00;6.00;;;;;19.36;36.69;101974.16;5007460;28;50998;-50
2021/11/24 04:50:13;;;;;;;;;11.25;6.75;;;;;19.36;36.69;101967.81;5005819;28;51826;-50
2021/11/24 04:52:39;;;;;;;;;9.25;7.25;;;;;19.35;36.63;101983.44;5009816;28;51231;-49
2021/11/24 04:55:05;;;;;;;;;6.00;5.00;;;;;19.36;36.65;101973.28;5005411;28;51107;-49
2021/11/24 04:57:31;;;;;;;;;7.00;7.00;;;;;19.33;36.58;101972.63;5006362;28;51164;-51
2021/11/24 04:59:56;;;;;;;;;6.25;5.00;;;;;19.32;36.76;101979.19;5012352;27;51948;-50
2021/11/24 05:02:21;;;;;;;;;7.50;5.50;;;;;19.32;36.70;101973.69;5007165;28;51215;-48
2021/11/24 05:04:47;;;;;;;;;8.00;5.75;;;;;19.31;36.66;101965.63;5033658;27;51066;-49
2021/11/24 05:07:12;;;;;;;;;6.00;5.50;;;;;19.31;37.03;101965.63;5010458;28;51159;-47
2021/11/24 05:09:37;;;;;;;;;5.25;5.25;;;;;19.31;36.95;101971.13;5002387;28;51151;-47
2021/11/24 05:12:04;;;;;;;;;6.00;4.25;;;;;19.30;36.82;101975.78;5008353;28;51138;-50
2021/11/24 05:14:34;;;;;;;;;7.00;6.50;;;;;19.30;36.95;101977.66;5005350;28;51231;-49
2021/11/24 05:17:03;;;;;;;;;7.00;4.75;;;;;19.29;36.85;101985.06;5009562;28;51114;-50
2021/11/24 05:19:30;;;;;;;;;5.00;5.00;;;;;19.29;36.72;101975.97;5005453;28;52781;-51
2021/11/24 05:21:56;;;;;;;;;5.75;5.25;;;;;19.28;36.79;101972.38;4997981;28;51076;-50
2021/11/24 05:24:21;;;;;;;;;9.50;7.25;;;;;19.27;37.03;101973.38;5002945;28;51072;-51
2021/11/24 05:26:47;;;;;;;;;3.50;3.50;;;;;19.27;36.94;101969.78;5014554;28;51298;-49
2021/11/24 05:29:13;;;;;;;;;6.25;3.00;;;;;19.27;36.69;101973.38;5002866;28;51797;-51
2021/11/24 05:31:39;;;;;;;;;5.75;5.00;;;;;19.26;36.91;101973.56;5008109;28;51107;-52
2021/11/24 05:34:05;;;;;;;;;7.50;7.25;;;;;19.25;37.08;101972.72;5002190;28;51032;-48
2021/11/24 05:36:31;;;;;;;;;7.75;7.00;;;;;19.24;36.91;101964.66;5001871;28;51025;-51
2021/11/24 05:38:56;;;;;;;;;5.50;5.00;;;;;19.23;36.72;101952.81;5003921;28;51148;-49
2021/11/24 05:41:21;;;;;;;;;10.00;7.50;;;;;19.23;36.89;101966.56;4999862;28;51158;-50
2021/11/24 05:43:48;;;;;;;;;5.75;5.75;;;;;19.22;36.78;101953.03;5011737;28;51140;-52
2021/11/24 05:46:28;;;;;;;;;5.75;5.50;;;;;19.22;36.71;101964.00;5009078;28;51340;-51
2021/11/24 05:48:54;;;;;;;;;8.50;5.25;;;;;19.21;36.74;101948.56;5002751;28;51230;-50
2021/11/24 05:51:20;;;;;;;;;8.50;7.00;;;;;19.21;36.98;101943.06;5010809;28;51014;-46
2021/11/24 05:53:45;;;;;;;;;5.25;5.25;;;;;19.19;36.73;101943.25;5003944;27;51192;-51
2021/11/24 05:56:10;;;;;;;;;6.00;4.50;;;;;19.19;36.87;101935.03;5005965;28;51123;-52
2021/11/24 05:58:36;;;;;;;;;5.75;4.75;;;;;19.18;36.57;101932.47;5008797;28;51789;-50
2021/11/24 06:01:01;;;;;;;;;7.25;7.25;;;;;19.18;36.85;101937.97;5010346;27;51488;-52
2021/11/24 06:03:27;;;;;;;;;8.50;7.75;;;;;19.17;36.67;101942.56;5004934;27;51287;-51
2021/11/24 06:05:52;;;;;;;;;7.75;6.75;;;;;19.16;36.99;101940.03;5016030;27;51121;-49
2021/11/24 06:08:18;;;;;;;;;5.75;5.00;;;;;19.16;36.94;101945.50;4997632;28;51710;-53
2021/11/24 06:10:44;;;;;;;;;7.00;6.50;;;;;19.15;36.67;101933.69;5004476;28;51488;-48
2021/11/24 06:13:10;;;;;;;;;7.50;5.00;;;;;19.15;36.88;101941.06;5008626;27;51274;-52
2021/11/24 06:15:35;;;;;;;;;7.25;7.00;;;;;19.13;36.62;101952.25;5011404;27;51171;-51
2021/11/24 06:18:01;;;;;;;;;14.75;11.75;;;;;19.13;36.37;101940.41;5003880;27;52801;-51
2021/11/24 06:20:27;;;;;;;;;19.00;14.50;;;;;19.11;35.99;101932.34;5011138;28;51265;-48
2021/11/24 06:22:52;;;;;;;;;21.75;20.75;;;;;19.07;35.75;101941.13;5004991;28;51047;-46
2021/11/24 06:25:18;;;;;;;;;20.75;17.25;;;;;19.05;35.50;101938.59;5005805;28;51398;-45
2021/11/24 06:27:44;;;;;;;;;21.50;19.75;;;;;19.00;35.10;101941.91;5008311;27;52258;-48
2021/11/24 06:30:13;;;;;;;;;23.00;18.75;;;;;18.97;34.97;101944.19;5009173;28;51197;-48
2021/11/24 06:32:38;;;;;;;;;22.75;20.50;;;;;18.91;35.04;101943.00;4999111;27;51258;-50
2021/11/24 06:35:04;;;;;;;;;21.75;16.50;;;;;18.87;34.59;101944.44;5008529;28;51433;-46
2021/11/24 06:37:30;;;;;;;;;24.25;18.75;;;;;18.82;34.89;101943.25;5001596;28;51764;-53
2021/11/24 06:39:55;;;;;;;;;19.75;15.25;;;;;18.77;34.65;101934.75;5004844;27;51330;-50
2021/11/24 06:42:21;;;;;;;;;23.75;18.25;;;;;18.76;35.05;101933.91;5000347;27;52890;-52
2021/11/24 06:44:46;;;;;;;;;15.00;12.25;;;;;18.80;34.97;101929.72;5003435;28;51756;-49
2021/11/24 06:47:13;;;;;;;;;14.50;14.50;;;;;18.86;35.00;101923.50;4999004;28;51200;-51
2021/11/24 06:49:39;;;;;;;;;15.50;13.25;;;;;18.95;35.05;101929.75;4999073;28;51356;-50
2021/11/24 06:52:04;;;;;;;;;16.00;12.00;;;;;19.03;35.09;101921.44;5001937;27;51213;-50
2021/11/24 06:54:30;;;;;;;;;11.00;9.50;;;;;19.11;35.41;101923.25;5004918;27;50948;-51
2021/11/24 06:56:55;;;;;;;;;8.50;8.50;;;;;19.19;35.66;101909.44;4985471;27;51897;-48
2021/11/24 06:59:20;;;;;;;;;10.25;8.50;;;;;19.27;35.67;101909.34;4999293;28;50920;-49
2021/11/24 07:01:46;;;;;;;;;10.00;9.25;;;;;19.35;35.73;101903.75;4998798;28;51125;-49
2021/11/24 07:04:12;;;;;;;;;10.75;9.50;;;;;19.43;35.85;101913.81;4997026;27;51358;-49
2021/11/24 07:06:37;;;;;;;;;8.75;8.75;;;;;19.50;35.73;101901.88;5001103;27;52926;-50
2021/11/24 07:09:04;;;;;;;;;7.50;6.50;;;;;19.58;35.62;101912.78;5007607;28;51173;-51
2021/11/24 07:11:32;;;;;;;;;7.00;6.50;;;;;19.68;35.79;101914.38;5009447;28;51170;-51
2021/11/24 07:13:58;;;;;;;;;8.25;6.00;;;;;19.77;35.81;101916.00;5004145;28;51436;-47
2021/11/24 07:16:24;;;;;;;;;5.00;5.00;;;;;19.86;35.82;101909.34;5000289;27;51772;-46
2021/11/24 07:18:49;;;;;;;;;5.50;5.00;;;;;19.95;35.77;101907.34;4992961;27;51367;-52
2021/11/24 07:21:15;;;;;;;;;4.00;4.00;;;;;20.01;35.73;101909.28;4997610;28;51016;-51
2021/11/24 07:23:40;;;;;;;;;6.25;4.75;;;;;20.07;35.73;101909.38;5002741;28;51109;-51
2021/11/24 07:26:06;;;;;;;;;5.50;3.50;;;;;20.13;35.75;101905.03;5004016;27;52171;-50
2021/11/24 07:28:31;;;;;;;;;7.00;6.00;;;;;20.19;35.98;101904.22;5008145;27;51359;-51
2021/11/24 07:30:57;;;;;;;;;4.50;4.50;;;;;20.26;35.66;101904.31;4995751;28;51140;-49
2021/11/24 07:33:24;;;;;;;;;5.75;4.75;;;;;20.32;36.10;101909.00;5000177;28;51207;-51
2021/11/24 07:35:49;;;;;;;;;5.00;5.00;;;;;20.37;35.97;101906.53;5002243;27;52057;-52
2021/11/24 07:38:15;;;;;;;;;9.50;9.00;;;;;20.43;35.80;101905.81;4997230;28;51176;-50
2021/11/24 07:40:41;;;;;;;;;9.50;7.00;;;;;20.51;35.47;101913.06;5001770;27;51114;-52
2021/11/24 07:43:07;;;;;;;;;6.25;5.75;;;;;20.56;35.51;101910.56;4995178;28;51158;-53
2021/11/24 07:45:32;;;;;;;;;9.00;6.75;;;;;20.60;35.48;101903.63;5004265;28;52814;-47
2021/11/24 07:47:58;;;;;;;;;7.75;7.00;;;;;20.66;35.38;101900.09;5000488;27;51369;-51
2021/11/24 07:50:23;;;;;;;;;10.25;7.75;;;;;20.71;35.23;101898.41;4995303;28;52293;-51
2021/11/24 07:52:49;;;;;;;;;8.25;8.00;;;;;20.77;35.14;101898.69;5005072;27;51174;-54
2021/11/24 07:55:15;;;;;;;;;7.75;7.25;;;;;20.79;35.18;101905.69;5006684;28;52179;-52
2021/11/24 07:57:40;;;;;;;;;8.75;7.75;;;;;20.79;34.92;101896.59;4999667;28;51128;-51
2021/11/24 08:00:06;;;;;;;;;13.50;9.75;;;;;20.77;34.77;101905.03;5004430;27;51325;-53
2021/11/24 08:02:31;;;;;;;;;11.00;9.75;;;;;20.76;34.85;101908.84;5003737;28;51225;-52
2021/11/24 08:04:57;;;;;;;;;8.25;6.75;;;;;20.79;34.28;101918.63;5008977;28;52005;-51
2021/11/24 08:07:22;;;;;;;;;9.75;9.75;;;;;20.82;34.75;101910.78;5005933;28;51372;-49
2021/11/24 08:09:48;;;;;;;;;11.75;10.00;;;;;20.83;34.24;101898.72;5003077;28;51106;-52
2021/11/24 08:12:13;;;;;;;;;8.50;7.25;;;;;20.84;34.42;101905.09;5002039;28;51308;-52
2021/11/24 08:14:38;;;;;;;;;13.75;10.50;;;;;20.80;34.54;101906.53;5005982;28;51946;-52
2021/11/24 08:17:04;;;;;;;;;11.00;10.25;;;;;20.74;34.41;101897.19;5000796;28;51157;-50
2021/11/24 08:19:30;;;;;;;;;7.25;6.00;;;;;20.69;34.37;101897.78;5007662;28;51361;-52
2021/11/24 08:21:55;;;;;;;;;8.75;8.75;;;;;20.63;34.45;101889.44;4996671;27;51194;-51
2021/11/24 08:24:22;;;;;;;;;6.25;6.25;;;;;20.58;34.88;101891.94;5001831;28;51704;-52
2021/11/24 08:26:47;;;;;;;;;13.25;8.00;;;;;20.53;34.46;101898.06;5008970;28;51200;-50
2021/11/24 08:29:13;;;;;;;;;7.25;7.25;;;;;20.50;34.81;101892.09;5003341;28;51293;-52
2021/11/24 08:31:42;;;;;;;;;9.25;8.50;;;;;20.44;34.82;101890.97;4996685;27;51108;-52
2021/11/24 08:34:08;;;;;;;;;8.00;7.00;;;;;20.41;34.60;101885.81;5017862;27;51982;-53
2021/11/24 08:36:35;;;;;;;;;6.25;6.25;;;;;20.38;34.82;101891.72;5002057;28;51052;-50
2021/11/24 08:39:00;;;;;;;;;9.50;6.00;;;;;20.33;34.68;101888.72;4999128;28;51212;-50
2021/11/24 08:41:25;;;;;;;;;8.75;7.75;;;;;20.28;34.84;101875.53;5007745;27;51185;-49
2021/11/24 08:43:51;;;;;;;;;11.25;6.25;;;;;20.24;34.73;101874.25;5003475;28;52585;-49
2021/11/24 08:46:17;;;;;;;;;7.25;5.50;;;;;20.21;34.73;101885.63;5003031;28;51223;-48
2021/11/24 08:48:42;;;;;;;;;7.00;6.50;;;;;20.17;35.09;101887.06;5005049;28;50966;-49
2021/11/24 08:51:08;;;;;;;;;8.00;5.00;;;;;20.12;35.11;101886.81;5002202;28;51461;-52
2021/11/24 08:53:34;;;;;;;;;7.00;6.50;;;;;20.08;35.11;101878.06;5004577;28;51916;-50
2021/11/24 08:55:59;;;;;;;;;5.75;5.75;;;;;20.06;35.34;101887.56;4997402;28;51133;-49
2021/11/24 08:58:25;;;;;;;;;6.00;6.00;;;;;20.02;35.36;101870.63;5004792;27;51135;-51
2021/11/24 09:00:50;;;;;;;;;9.00;6.00;;;;;19.98;35.01;101873.94;5000466;28;51118;-48
2021/11/24 09:03:16;;;;;;;;;6.75;5.25;;;;;19.96;35.06;101876.03;5001694;27;51835;-51
2021/11/24 09:05:42;;;;;;;;;5.50;5.50;;;;;19.92;35.33;101859.09;5004548;27;51171;-53
2021/11/24 09:08:07;;;;;;;;;11.25;7.00;;;;;19.89;35.05;101856.69;5003601;28;51136;-51
2021/11/24 09:10:34;;;;;;;;;10.25;6.75;;;;;19.85;35.30;101856.25;5006084;28;51331;-51
2021/11/24 09:13:00;;;;;;;;;11.00;6.00;;;;;19.83;35.16;101855.59;5000128;27;51154;-53
2021/11/24 09:15:26;;;;;;;;;7.00;6.25;;;;;19.81;35.10;101848.59;5001870;27;51175;-52
2021/11/24 09:17:52;;;;;;;;;8.50;8.50;;;;;19.78;35.50;101841.56;5001604;28;51189;-51
2021/11/24 09:20:19;;;;;;;;;7.50;6.25;;;;;19.76;35.43;101840.06;5004998;28;51113;-51
2021/11/24 09:22:46;;;;;;;;;5.25;5.00;;;;;19.74;35.44;101840.25;5004434;28;52005;-47
2021/11/24 09:25:17;;;;;;;;;6.75;6.00;;;;;19.71;35.54;101846.16;4999516;28;52031;-51
2021/11/24 09:27:57;;;;;;;;;6.00;6.00;;;;;19.69;35.23;101839.97;4986144;28;51230;-50
2021/11/24 09:30:23;;;;;;;;;8.00;5.00;;;;;19.67;35.43;101847.56;5004543;28;51486;-50
2021/11/24 09:32:49;;;;;;;;;5.00;5.00;;;;;19.66;35.71;101843.13;5001495;27;52462;-49
2021/11/24 09:35:15;;;;;;;;;7.25;6.00;;;;;19.63;35.58;101839.91;5001508;27;51207;-51
2021/11/24 09:37:41;;;;;;;;;5.50;5.00;;;;;19.62;35.46;101846.44;5007834;27;51164;-49
2021/11/24 09:40:08;;;;;;;;;5.25;5.25;;;;;19.59;35.52;101833.91;5008227;28;51151;-52
2021/11/24 09:42:40;;;;;;;;;7.50;7.50;;;;;19.59;35.52;101828.44;4998692;28;51403;-50
2021/11/24 09:45:06;;;;;;;;;6.25;5.75;;;;;19.63;35.64;101832.50;4997691;28;51245;-49
2021/11/24 09:47:34;;;;;;;;;6.00;4.75;;;;;19.71;35.54;101831.56;4994950;27;51379;-52
2021/11/24 09:50:00;;;;;;;;;6.00;5.00;;;;;19.80;35.58;101824.88;4995146;28;51101;-49
2021/11/24 09:52:27;;;;;;;;;5.25;4.25;;;;;19.92;35.34;101830.72;5002718;27;51196;-51
2021/11/24 09:54:53;;;;;;;;;6.00;5.25;;;;;20.02;34.95;101828.53;4999503;27;51079;-51
2021/11/24 09:57:21;;;;;;;;;6.50;5.00;;;;;20.12;35.51;101824.41;5000072;27;51214;-47
2021/11/24 09:59:47;;;;;;;;;4.50;4.50;;;;;20.23;35.09;101823.03;4985628;27;51312;-50
2021/11/24 10:02:13;;;;;;;;;6.75;4.50;;;;;20.32;34.75;101827.34;4995711;28;50941;-50
2021/11/24 10:04:44;;;;;;;;;5.25;3.50;;;;;20.41;34.87;101826.13;4995328;27;52408;-52
2021/11/24 10:07:15;;;;;;;;;6.00;5.75;;;;;20.51;34.83;101833.22;4999639;28;51523;-49
2021/11/24 10:09:42;;;;;;;;;5.25;5.25;;;;;20.59;34.93;101828.44;4995738;27;51288;-49
2021/11/24 10:12:09;;;;;;;;;7.75;5.75;;;;;20.67;34.58;101813.69;4993706;27;53201;-50
2021/11/24 10:14:36;;;;;;;;;3.75;3.75;;;;;20.75;34.56;101824.56;4998279;27;51173;-50
2021/11/24 10:17:09;;;;;;;;;6.00;4.00;;;;;20.83;34.88;101823.53;4980456;27;51286;-52
2021/11/24 10:19:35;;;;;;;;;3.00;3.00;;;;;20.90;34.68;101822.53;5001445;27;51186;-51
2021/11/24 10:22:04;;;;;;;;;4.00;2.50;;;;;20.98;34.51;101813.25;5006523;27;52201;-50
2021/11/24 10:24:40;;;;;;;;;3.50;0.00;;;;;21.04;34.60;101815.19;4993799;27;51494;-49
2021/11/24 10:27:08;;;;;;;;;6.75;4.50;;;;;21.10;34.66;101800.59;5002281;27;51275;-49
2021/11/24 10:29:34;;;;;;;;;6.00;5.00;;;;;21.16;34.42;101797.06;4995928;27;51318;-49
2021/11/24 10:32:00;;;;;;;;;4.50;4.00;;;;;21.18;33.94;101794.94;5002694;27;52036;-50
2021/11/24 10:34:27;;;;;;;;;6.50;5.75;;;;;21.19;34.50;101795.78;4992419;27;52920;-52
2021/11/24 10:37:09;;;;;;;;;6.00;5.25;;;;;21.16;34.53;101797.06;4993232;28;51415;-51
2021/11/24 10:39:50;;;;;;;;;5.25;5.25;;;;;21.15;34.40;101784.31;4999766;27;51174;-49
2021/11/24 10:42:22;;;;;;;;;5.50;4.50;;;;;21.19;34.42;101782.84;5001300;27;51763;-50
2021/11/24 10:44:51;;;;;;;;;6.00;4.75;;;;;21.25;34.59;101776.50;5004217;27;51444;-51
2021/11/24 10:47:18;;;;;;;;;5.50;5.50;;;;;21.31;34.57;101772.13;5003404;27;51419;-48
2021/11/24 10:49:52;;;;;;;;;8.00;6.00;;;;;21.39;33.96;101771.09;5003418;28;51451;-47
2021/11/24 10:52:17;;;;;;;;;3.50;3.50;;;;;21.44;34.06;101772.16;4998586;27;51215;-51
2021/11/24 10:54:54;;;;;;;;;4.00;4.00;;;;;21.47;34.39;101760.75;5008905;27;51769;-52
2021/11/24 10:57:20;;;;;;;;;5.00;5.00;;;;;21.45;33.89;101753.72;5001299;28;51204;-50
2021/11/24 10:59:45;;;;;;;;;3.50;3.50;;;;;21.43;33.94;101751.19;5026509;27;51227;-48
2021/11/24 11:02:25;;;;;;;;;4.00;4.00;;;;;21.42;33.78;101746.72;5007863;27;51990;-50
2021/11/24 11:05:09;;;;;;;;;7.00;6.00;;;;;21.47;33.90;101735.09;5004881;27;50891;-49
2021/11/24 11:07:42;;;;;;;;;5.00;4.50;;;;;21.54;33.83;101738.69;4999582;27;51283;-48
2021/11/24 11:10:14;;;;;;;;;4.50;4.50;;;;;21.58;33.73;101738.09;5002983;27;50969;-52
2021/11/24 11:12:42;;;;;;;;;4.00;3.75;;;;;21.65;34.14;101724.31;5004382;27;51136;-50
2021/11/24 11:15:37;;;;;;;;;6.25;6.25;;;;;21.66;33.63;101714.13;5008316;27;50953;-51
2021/11/24 11:18:20;;;;;;;;;4.25;4.25;;;;;21.64;33.77;101703.31;4986684;28;51088;-52
2021/11/24 11:20:57;;;;;;;;;3.75;3.50;;;;;21.62;33.64;101702.69;5000958;27;51102;-53